createdAt,value
2022-09-22T00:02:27.810Z,99361.00
2022-09-22T00:05:29.875Z,99362.09
2022-09-22T00:08:33.896Z,99355.09
2022-09-22T00:11:37.006Z,99349.66
2022-09-22T00:14:40.666Z,99352.25
2022-09-22T00:17:42.730Z,99356.84
2022-09-22T00:20:44.502Z,99350.84
2022-09-22T00:23:49.872Z,99346.44
2022-09-22T00:26:55.341Z,99350.78
2022-09-22T00:30:00.514Z,99351.50
2022-09-22T00:33:02.086Z,99355.84
2022-09-22T00:36:04.239Z,99344.28
2022-09-22T00:39:07.689Z,99348.72
2022-09-22T00:42:09.591Z,99342.53
2022-09-22T00:45:12.057Z,99343.53
2022-09-22T00:48:14.443Z,99336.44
2022-09-22T00:51:17.919Z,99333.84
2022-09-22T00:54:20.828Z,99336.66
2022-09-22T00:57:24.423Z,99337.56
2022-09-22T01:00:28.984Z,99329.59
2022-09-22T01:03:31.258Z,99330.59
2022-09-22T01:06:33.463Z,99334.16
2022-09-22T01:09:39.431Z,99336.94
2022-09-22T01:12:45.399Z,99332.63
2022-09-22T01:15:52.856Z,99326.34
2022-09-22T01:19:05.347Z,99325.47
2022-09-22T01:22:16.162Z,99322.03
2022-09-22T01:25:37.160Z,99322.13
2022-09-22T01:28:46.065Z,99321.44
2022-09-22T01:31:53.101Z,99314.34
2022-09-22T01:34:56.957Z,99319.66
2022-09-22T01:38:03.560Z,99321.50
2022-09-22T01:41:08.198Z,99322.47
2022-09-22T01:44:13.625Z,99319.00
2022-09-22T01:47:19.666Z,99312.91
2022-09-22T01:50:24.467Z,99314.63
2022-09-22T01:53:30.540Z,99312.84
2022-09-22T01:56:34.414Z,99309.47
2022-09-22T01:59:38.599Z,99312.97
2022-09-22T02:02:45.283Z,99308.47
2022-09-22T02:05:50.314Z,99303.09
2022-09-22T02:08:55.074Z,99302.09
2022-09-22T02:11:57.504Z,99301.09
2022-09-22T02:14:59.239Z,99294.13
2022-09-22T02:18:06.392Z,99292.56
2022-09-22T02:21:08.008Z,99297.13
2022-09-22T02:24:24.439Z,99293.56
2022-09-22T02:27:27.613Z,99290.69
2022-09-22T02:30:31.990Z,99290.47
2022-09-22T02:33:38.283Z,99287.00
2022-09-22T02:36:45.379Z,99293.28
2022-09-22T02:39:51.329Z,99290.78
2022-09-22T02:42:56.500Z,99282.97
2022-09-22T02:46:00.231Z,99276.91
2022-09-22T02:49:11.947Z,99280.59
2022-09-22T02:52:14.507Z,99278.00
2022-09-22T02:55:16.261Z,99275.41
2022-09-22T02:58:18.134Z,99273.63
2022-09-22T03:01:19.859Z,99275.41
2022-09-22T03:04:22.914Z,99271.91
2022-09-22T03:07:24.525Z,99276.31
2022-09-22T03:10:25.971Z,99266.63
2022-09-22T03:13:27.616Z,99267.56
2022-09-22T03:16:29.142Z,99257.03
2022-09-22T03:19:32.023Z,99258.00
2022-09-22T03:22:33.687Z,99254.53
2022-09-22T03:25:35.640Z,99257.16
2022-09-22T03:28:37.283Z,99247.47
2022-09-22T03:31:38.853Z,99252.78
2022-09-22T03:34:41.878Z,99245.75
2022-09-22T03:37:43.537Z,99252.84
2022-09-22T03:40:49.416Z,99246.66
2022-09-22T03:43:51.207Z,99248.44
2022-09-22T03:47:01.897Z,99251.09
2022-09-22T03:50:05.501Z,99252.84
2022-09-22T03:53:07.098Z,99245.75
2022-09-22T03:56:12.140Z,99244.81
2022-09-22T03:59:13.956Z,99247.50
2022-09-22T04:02:17.312Z,99249.34
2022-09-22T04:05:20.458Z,99244.09
2022-09-22T04:08:22.194Z,99252.91
2022-09-22T04:11:27.760Z,99243.22
2022-09-22T04:14:30.038Z,99241.47
2022-09-22T04:17:32.083Z,99237.91
2022-09-22T04:20:36.114Z,99237.84
2022-09-22T04:23:37.782Z,99234.28
2022-09-22T04:26:51.631Z,99235.16
2022-09-22T04:30:01.638Z,99236.06
2022-09-22T04:33:05.280Z,99229.06
2022-09-22T04:36:08.685Z,99232.59
2022-09-22T04:39:10.622Z,99234.31
2022-09-22T04:42:12.284Z,99234.38
2022-09-22T04:45:18.217Z,99230.88
2022-09-22T04:48:20.032Z,99224.66
2022-09-22T04:51:23.140Z,99229.09
2022-09-22T04:54:25.031Z,99223.81
2022-09-22T04:57:26.985Z,99217.69
2022-09-22T05:00:29.151Z,99224.75
2022-09-22T05:03:30.889Z,99231.88
2022-09-22T05:06:33.927Z,99226.56
2022-09-22T05:09:35.739Z,99225.72
2022-09-22T05:12:39.102Z,99227.47
2022-09-22T05:15:40.881Z,99230.97
2022-09-22T05:18:42.547Z,99238.91
2022-09-22T05:21:45.555Z,99227.50
2022-09-22T05:24:47.442Z,99237.22
2022-09-22T05:27:57.512Z,99245.16
2022-09-22T05:30:59.151Z,99235.44
2022-09-22T05:34:00.643Z,99234.53
2022-09-22T05:37:03.501Z,99243.28
2022-09-22T05:40:07.140Z,99247.66
2022-09-22T05:43:08.670Z,99242.31
2022-09-22T05:46:10.322Z,99251.97
2022-09-22T05:49:12.229Z,99244.81
2022-09-22T05:52:15.550Z,99243.91
2022-09-22T05:55:17.369Z,99245.63
2022-09-22T05:58:18.897Z,99242.91
2022-09-22T06:01:20.409Z,99241.03
2022-09-22T06:04:24.380Z,99240.03
2022-09-22T06:07:27.937Z,99244.31
2022-09-22T06:10:33.977Z,99247.72
2022-09-22T06:13:42.870Z,99244.06
2022-09-22T06:16:44.577Z,99241.31
2022-09-22T06:19:50.012Z,99245.56
2022-09-22T06:22:54.095Z,99247.13
2022-09-22T06:25:59.047Z,99247.81
2022-09-22T06:29:00.709Z,99244.09
2022-09-22T06:32:02.468Z,99255.34
2022-09-22T06:35:04.326Z,99256.06
2022-09-22T06:38:12.833Z,99250.53
2022-09-22T06:41:14.537Z,99254.94
2022-09-22T06:44:16.260Z,99247.63
2022-09-22T06:47:17.875Z,99249.25
2022-09-22T06:50:19.582Z,99246.56
2022-09-22T06:53:25.583Z,99243.81
2022-09-22T06:56:28.556Z,99249.00
2022-09-22T06:59:30.031Z,99246.25
2022-09-22T07:02:31.623Z,99247.78
2022-09-22T07:05:33.559Z,99246.63
2022-09-22T07:08:38.374Z,99254.19
2022-09-22T07:11:40.562Z,99241.41
2022-09-22T07:14:43.998Z,99250.69
2022-09-22T07:17:45.782Z,99242.56
2022-09-22T07:20:47.568Z,99253.25
2022-09-22T07:23:53.582Z,99255.06
2022-09-22T07:26:55.498Z,99249.47
2022-09-22T07:30:00.390Z,99257.72
2022-09-22T07:33:02.218Z,99246.78
2022-09-22T07:36:04.940Z,99247.75
2022-09-22T07:39:08.660Z,99256.50
2022-09-22T07:42:10.270Z,99241.63
2022-09-22T07:45:12.987Z,99244.91
2022-09-22T07:48:33.452Z,99245.78
2022-09-22T07:51:35.657Z,99250.50
2022-09-22T07:54:40.190Z,99244.25
2022-09-22T07:57:41.706Z,99245.47
2022-09-22T08:00:43.147Z,99238.63
2022-09-22T08:03:46.365Z,99249.63
2022-09-22T08:06:48.815Z,99247.59
2022-09-22T08:09:54.349Z,99250.03
2022-09-22T08:12:57.824Z,99251.78
2022-09-22T08:15:59.467Z,99249.31
2022-09-22T08:19:02.447Z,99251.03
2022-09-22T08:22:04.333Z,99241.41
2022-09-22T08:25:07.978Z,99249.09
2022-09-22T08:28:12.510Z,99244.13
2022-09-22T08:31:15.365Z,99241.41
2022-09-22T08:34:18.122Z,99243.88
2022-09-22T08:37:20.555Z,99248.09
2022-09-22T08:40:24.169Z,99247.44
2022-09-22T08:43:25.802Z,99246.22
2022-09-22T08:46:28.747Z,99243.00
2022-09-22T08:49:50.979Z,99250.00
2022-09-22T08:52:55.722Z,99249.50
2022-09-22T08:56:03.297Z,99246.84
2022-09-22T08:59:09.338Z,99240.03
2022-09-22T09:02:29.832Z,99249.72
2022-09-22T09:05:54.489Z,99246.53
2022-09-22T09:09:06.503Z,99243.75
2022-09-22T09:12:21.326Z,99259.84
2022-09-22T09:15:30.679Z,99250.38
2022-09-22T09:18:33.645Z,99254.22
2022-09-22T09:21:38.089Z,99256.97
2022-09-22T09:28:10.180Z,99261.69
2022-09-22T09:31:15.312Z,99258.22
2022-09-22T09:34:18.220Z,99247.25
2022-09-22T09:37:20.673Z,99247.22
2022-09-22T09:40:22.419Z,99246.06
2022-09-22T09:43:28.019Z,99247.13
2022-09-22T09:46:38.268Z,99245.63
2022-09-22T09:49:39.798Z,99242.75
2022-09-22T09:52:41.873Z,99240.53
2022-09-22T09:55:43.364Z,99235.06
2022-09-22T09:59:13.378Z,99237.31
2022-09-22T10:02:15.685Z,99237.25
2022-09-22T10:05:22.126Z,99237.84
2022-09-22T10:08:24.590Z,99233.50
2022-09-22T10:11:30.614Z,99227.16
2022-09-22T10:14:34.447Z,99231.69
2022-09-22T10:17:39.783Z,99214.97
2022-09-22T10:20:41.411Z,99222.56
2022-09-22T10:23:43.736Z,99218.28
2022-09-22T10:26:55.159Z,99216.09
2022-09-22T10:30:15.705Z,99205.25
2022-09-22T10:33:21.636Z,99208.50
2022-09-22T10:36:26.014Z,99207.47
2022-09-22T10:39:32.921Z,99209.75
2022-09-22T10:42:36.030Z,99197.81
2022-09-22T10:45:42.565Z,99195.22
2022-09-22T10:48:48.205Z,99194.03
2022-09-22T10:51:57.410Z,99186.38
2022-09-22T10:55:06.489Z,99190.59
2022-09-22T10:58:22.981Z,99185.75
2022-09-22T11:01:32.817Z,99191.38
2022-09-22T11:04:41.731Z,99186.59
2022-09-22T11:08:12.205Z,99178.50
2022-09-22T11:11:38.856Z,99181.69
2022-09-22T11:14:50.237Z,99187.06
2022-09-22T11:17:58.645Z,99182.47
2022-09-22T11:21:08.707Z,99179.38
2022-09-22T11:24:26.444Z,99175.19
2022-09-22T11:27:36.629Z,99165.41
2022-09-22T11:30:40.893Z,99172.78
2022-09-22T11:33:56.463Z,99169.75
2022-09-22T11:37:22.640Z,99161.78
2022-09-22T11:40:33.121Z,99166.00
2022-09-22T11:43:44.735Z,99158.19
2022-09-22T11:46:55.431Z,99151.69
2022-09-22T11:50:14.295Z,99153.22
2022-09-22T11:53:33.904Z,99153.78
2022-09-22T11:56:38.654Z,99145.66
2022-09-22T11:59:47.248Z,99150.88
2022-09-22T12:02:54.959Z,99151.03
2022-09-22T12:05:58.577Z,99148.41
2022-09-22T12:09:03.051Z,99146.69
2022-09-22T12:12:05.719Z,99141.19
2022-09-22T12:15:09.748Z,99135.63
2022-09-22T12:18:14.297Z,99137.53
2022-09-22T12:21:23.030Z,99127.84
2022-09-22T12:24:27.188Z,99129.53
2022-09-22T12:27:30.059Z,99119.22
2022-09-22T12:30:32.027Z,99113.00
2022-09-22T12:33:35.155Z,99116.34
2022-09-22T12:36:40.488Z,99113.91
2022-09-22T12:39:44.692Z,99110.59
2022-09-22T12:42:49.165Z,99109.41
2022-09-22T12:45:51.978Z,99108.94
2022-09-22T12:48:54.296Z,99102.31
2022-09-22T12:51:55.978Z,99096.47
2022-09-22T12:55:12.329Z,99102.38
2022-09-22T12:58:32.694Z,99100.28
2022-09-22T13:01:35.045Z,99092.28
2022-09-22T13:04:37.329Z,99088.72
2022-09-22T13:07:39.708Z,99088.75
2022-09-22T13:10:49.882Z,99095.66
2022-09-22T13:13:52.134Z,99084.00
2022-09-22T13:16:53.591Z,99083.34
2022-09-22T13:19:58.123Z,99079.09
2022-09-22T13:23:12.102Z,99084.44
2022-09-22T13:26:16.506Z,99079.34
2022-09-22T13:29:19.273Z,99079.13
2022-09-22T13:32:27.059Z,99074.47
2022-09-22T13:35:30.288Z,99069.63
2022-09-22T13:38:34.238Z,99064.94
2022-09-22T13:41:41.242Z,99059.97
2022-09-22T13:44:44.492Z,99059.56
2022-09-22T13:47:46.989Z,99051.28
2022-09-22T13:50:50.398Z,99053.63
2022-09-22T13:53:53.596Z,99045.53
2022-09-22T13:56:57.703Z,99052.38
2022-09-22T14:00:03.620Z,99053.31
2022-09-22T14:03:05.244Z,99044.88
2022-09-22T14:06:10.212Z,99041.22
2022-09-22T14:09:11.862Z,99043.31
2022-09-22T14:12:15.617Z,99031.88
2022-09-22T14:15:39.362Z,99034.59
2022-09-22T14:18:42.920Z,99023.69
2022-09-22T14:21:49.206Z,99027.63
2022-09-22T14:24:52.293Z,99026.97
2022-09-22T14:27:59.379Z,99026.66
2022-09-22T14:31:02.047Z,99024.94
2022-09-22T14:34:03.733Z,99026.56
2022-09-22T14:37:13.795Z,99021.19
2022-09-22T14:40:16.290Z,99012.75
2022-09-22T14:43:23.915Z,99011.31
2022-09-22T14:46:33.827Z,99004.88
2022-09-22T14:49:38.191Z,98998.34
2022-09-22T14:52:41.474Z,98998.13
2022-09-22T14:55:45.105Z,99000.56
2022-09-22T14:58:51.269Z,99001.69
2022-09-22T15:02:12.234Z,99004.00
2022-09-22T15:05:27.637Z,99001.59
2022-09-22T15:08:32.156Z,98999.09
2022-09-22T15:11:48.240Z,98991.31
2022-09-22T15:14:58.476Z,98989.66
2022-09-22T15:18:19.439Z,98989.88
2022-09-22T15:21:29.191Z,98987.94
2022-09-22T15:24:30.759Z,98989.00
2022-09-22T15:27:32.368Z,98990.44
2022-09-22T15:30:36.434Z,98974.16
2022-09-22T15:33:37.861Z,98973.00
2022-09-22T15:36:44.347Z,98969.25
2022-09-22T15:39:46.097Z,98977.16
2022-09-22T15:43:09.063Z,98973.97
2022-09-22T15:46:23.981Z,98966.38
2022-09-22T15:49:29.499Z,98962.34
2022-09-22T15:52:31.009Z,98973.31
2022-09-22T15:55:34.744Z,98966.75
2022-09-22T15:58:39.370Z,98967.00
2022-09-22T16:01:42.276Z,98971.63
2022-09-22T16:04:44.374Z,98962.94
2022-09-22T16:07:48.546Z,98959.03
2022-09-22T16:10:50.282Z,98959.47
2022-09-22T16:13:51.951Z,98950.22
2022-09-22T16:16:55.062Z,98941.59
2022-09-22T16:19:58.620Z,98946.63
2022-09-22T16:23:02.031Z,98947.19
2022-09-22T16:26:04.021Z,98944.94
2022-09-22T16:29:07.013Z,98946.16
2022-09-22T16:32:11.498Z,98940.53
2022-09-22T16:35:13.823Z,98940.19
2022-09-22T16:38:15.798Z,98950.38
2022-09-22T16:41:21.142Z,98940.16
2022-09-22T16:44:22.657Z,98941.72
2022-09-22T16:47:25.751Z,98945.97
2022-09-22T16:50:28.043Z,98943.97
2022-09-22T16:53:29.595Z,98939.03
2022-09-22T16:56:31.856Z,98944.97
2022-09-22T16:59:33.511Z,98943.72
2022-09-22T17:02:36.614Z,98937.06
2022-09-22T17:05:39.870Z,98937.66
2022-09-22T17:08:45.939Z,98933.69
2022-09-22T17:11:53.689Z,98937.72
2022-09-22T17:14:55.638Z,98937.25
2022-09-22T17:17:58.625Z,98944.72
2022-09-22T17:21:00.491Z,98929.06
2022-09-22T17:24:02.756Z,98927.63
2022-09-22T17:27:05.758Z,98925.31
2022-09-22T17:30:08.055Z,98926.63
2022-09-22T17:33:11.171Z,98917.31
2022-09-22T17:36:13.783Z,98913.22
2022-09-22T17:39:15.423Z,98925.19
2022-09-22T17:42:16.894Z,98924.84
2022-09-22T17:45:18.888Z,98922.63
2022-09-22T17:48:40.104Z,98925.59
2022-09-22T17:52:01.074Z,98929.47
2022-09-22T17:55:07.339Z,98924.22
2022-09-22T17:58:10.045Z,98925.41
2022-09-22T18:01:12.086Z,98920.34
2022-09-22T18:04:15.098Z,98923.34
2022-09-22T18:07:17.870Z,98923.56
2022-09-22T18:10:20.019Z,98923.06
2022-09-22T18:13:21.704Z,98924.09
2022-09-22T18:16:29.332Z,98921.75
2022-09-22T18:19:35.098Z,98916.72
2022-09-22T18:22:36.884Z,98915.13
2022-09-22T18:25:38.339Z,98917.78
2022-09-22T18:28:40.647Z,98916.19
2022-09-22T18:31:42.637Z,98918.28
2022-09-22T18:34:48.716Z,98917.72
2022-09-22T18:37:51.713Z,98916.41
2022-09-22T18:40:54.540Z,98912.00
2022-09-22T18:43:56.280Z,98914.59
2022-09-22T18:47:03.453Z,98922.75
2022-09-22T18:50:07.081Z,98920.41
2022-09-22T18:53:08.528Z,98922.31
2022-09-22T18:56:10.725Z,98920.81
2022-09-22T18:59:13.029Z,98929.94
2022-09-22T19:02:14.673Z,98922.09
2022-09-22T19:05:17.978Z,98922.25
2022-09-22T19:08:23.175Z,98932.22
2022-09-22T19:11:24.766Z,98926.19
2022-09-22T19:14:26.325Z,98934.25
2022-09-22T19:17:29.793Z,98927.41
2022-09-22T19:20:33.031Z,98927.66
2022-09-22T19:23:37.329Z,98931.41
2022-09-22T19:26:42.827Z,98934.13
2022-09-22T19:29:44.328Z,98923.56
2022-09-22T19:32:46.189Z,98921.78
2022-09-22T19:35:49.324Z,98920.03
2022-09-22T19:38:50.920Z,98926.16
2022-09-22T19:41:52.642Z,98921.84
2022-09-22T19:44:54.192Z,98918.50
2022-09-22T19:47:58.735Z,98910.75
2022-09-22T19:51:03.366Z,98913.56
2022-09-22T19:54:05.239Z,98924.38
2022-09-22T19:57:06.918Z,98916.53
2022-09-22T20:00:09.731Z,98911.13
2022-09-22T20:03:11.209Z,98917.63
2022-09-22T20:06:14.873Z,98918.66
2022-09-22T20:09:16.751Z,98914.47
2022-09-22T20:12:21.210Z,98916.59
2022-09-22T20:15:22.746Z,98916.84
2022-09-22T20:18:24.285Z,98913.63
2022-09-22T20:21:27.894Z,98907.75
2022-09-22T20:24:29.559Z,98903.50
2022-09-22T20:27:32.380Z,98906.16
2022-09-22T20:30:33.979Z,98899.91
2022-09-22T20:33:35.504Z,98901.69
2022-09-22T20:36:38.413Z,98897.31
2022-09-22T20:39:40.159Z,98895.56
2022-09-22T20:42:41.855Z,98905.44
2022-09-22T20:45:43.901Z,98906.44
2022-09-22T20:48:45.890Z,98896.78
2022-09-22T20:51:48.909Z,98904.00
2022-09-22T20:54:50.453Z,98903.41
2022-09-22T20:57:52.341Z,98902.75
2022-09-22T21:00:55.715Z,98894.94
2022-09-22T21:03:57.751Z,98901.22
2022-09-22T21:07:00.742Z,98901.31
2022-09-22T21:10:40.801Z,98895.97
2022-09-22T21:13:42.615Z,98900.50
2022-09-22T21:16:47.650Z,98898.91
2022-09-22T21:19:49.300Z,98896.28
2022-09-22T21:22:52.768Z,98898.03
2022-09-22T21:25:57.920Z,98898.78
2022-09-22T21:28:59.634Z,98895.31
2022-09-22T21:32:01.897Z,98896.22
2022-09-22T21:35:05.957Z,98892.78
2022-09-22T21:38:09.091Z,98896.44
2022-09-22T21:41:13.990Z,98891.25
2022-09-22T21:44:15.851Z,98883.47
2022-09-22T21:47:18.576Z,98887.94
2022-09-22T21:50:20.463Z,98876.41
2022-09-22T21:53:23.441Z,98879.16
2022-09-22T21:56:25.801Z,98876.66
2022-09-22T21:59:27.399Z,98876.75
2022-09-22T22:02:51.147Z,98872.44
2022-09-22T22:05:58.656Z,98867.75
2022-09-22T22:09:04.518Z,98863.81
2022-09-22T22:12:06.059Z,98859.94
2022-09-22T22:15:08.226Z,98856.31
2022-09-22T22:18:09.727Z,98860.78
2022-09-22T22:21:12.340Z,98857.28
2022-09-22T22:24:19.467Z,98856.63
2022-09-22T22:27:22.401Z,98854.13
2022-09-22T22:30:24.223Z,98852.38
2022-09-22T22:33:25.890Z,98852.28
2022-09-22T22:36:27.440Z,98853.81
2022-09-22T22:39:30.829Z,98848.25
2022-09-22T22:42:34.770Z,98851.72
2022-09-22T22:45:36.326Z,98842.69
2022-09-22T22:48:37.856Z,98840.88
2022-09-22T22:51:42.860Z,98845.91
2022-09-22T22:54:45.884Z,98844.84
2022-09-22T22:57:47.504Z,98851.69
2022-09-22T23:00:49.029Z,98846.03
2022-09-22T23:03:52.087Z,98849.66
2022-09-22T23:06:53.565Z,98847.78
2022-09-22T23:10:06.373Z,98846.84
2022-09-22T23:13:08.228Z,98833.66
2022-09-22T23:16:11.259Z,98840.66
2022-09-22T23:19:14.419Z,98835.19
2022-09-22T23:22:15.949Z,98836.19
2022-09-22T23:25:19.121Z,98836.19
2022-09-22T23:28:23.391Z,98829.91
2022-09-22T23:31:25.208Z,98826.50
2022-09-22T23:34:27.492Z,98827.44
2022-09-22T23:37:28.977Z,98819.63
2022-09-22T23:40:34.610Z,98823.16
2022-09-22T23:43:36.510Z,98822.16
2022-09-22T23:46:38.432Z,98816.03
2022-09-22T23:49:40.444Z,98815.94
2022-09-22T23:52:41.927Z,98815.06
2022-09-22T23:55:45.150Z,98811.63
2022-09-22T23:58:46.936Z,98810.75
